createdAt,value
2018-03-04T00:00:53.250Z,1003.24
2018-03-04T00:01:53.255Z,1003.22
2018-03-04T00:02:53.262Z,1003.28
2018-03-04T00:03:53.258Z,1003.3
2018-03-04T00:04:53.261Z,1003.34
2018-03-04T00:05:53.252Z,1003.41
2018-03-04T00:06:53.231Z,1003.46
2018-03-04T00:07:53.237Z,1003.46
2018-03-04T00:08:53.247Z,1003.5
2018-03-04T00:09:53.274Z,1003.5
2018-03-04T00:10:53.262Z,1003.48
2018-03-04T00:11:53.281Z,1003.53
2018-03-04T00:12:53.249Z,1003.54
2018-03-04T00:13:53.248Z,1003.55
2018-03-04T00:14:53.254Z,1003.56
2018-03-04T00:15:53.254Z,1003.55
2018-03-04T00:16:53.261Z,1003.53
2018-03-04T00:17:53.243Z,1003.51
2018-03-04T00:18:53.240Z,1003.53
2018-03-04T00:19:53.251Z,1003.52
2018-03-04T00:20:53.238Z,1003.52
2018-03-04T00:21:53.243Z,1003.59
2018-03-04T00:22:53.225Z,1003.58
2018-03-04T00:23:53.259Z,1003.58
2018-03-04T00:24:53.237Z,1003.67
2018-03-04T00:25:53.240Z,1003.62
2018-03-04T00:26:53.234Z,1003.65
2018-03-04T00:27:53.271Z,1003.66
2018-03-04T00:28:53.248Z,1003.65
2018-03-04T00:29:53.230Z,1003.67
2018-03-04T00:30:53.226Z,1003.66
2018-03-04T00:31:53.226Z,1003.66
2018-03-04T00:32:53.245Z,1003.64
2018-03-04T00:33:53.237Z,1003.63
2018-03-04T00:34:53.243Z,1003.66
2018-03-04T00:35:53.240Z,1003.64
2018-03-04T00:36:53.226Z,1003.67
2018-03-04T00:37:53.214Z,1003.64
2018-03-04T00:38:53.261Z,1003.65
2018-03-04T00:39:53.249Z,1003.63
2018-03-04T00:40:53.233Z,1003.63
2018-03-04T00:41:53.231Z,1003.6
2018-03-04T00:42:53.220Z,1003.62
2018-03-04T00:43:53.254Z,1003.6
2018-03-04T00:44:53.242Z,1003.6
2018-03-04T00:45:53.220Z,1003.6
2018-03-04T00:46:53.247Z,1003.57
2018-03-04T00:47:53.222Z,1003.53
2018-03-04T00:48:53.231Z,1003.5
2018-03-04T00:49:53.233Z,1003.45
2018-03-04T00:50:53.224Z,1003.45
2018-03-04T00:51:53.229Z,1003.43
2018-03-04T00:52:53.229Z,1003.44
2018-03-04T00:53:53.218Z,1003.39
2018-03-04T00:54:53.230Z,1003.41
2018-03-04T00:55:53.240Z,1003.41
2018-03-04T00:56:53.226Z,1003.35
2018-03-04T00:57:53.243Z,1003.32
2018-03-04T00:58:53.237Z,1003.35
2018-03-04T00:59:53.215Z,1003.33
2018-03-04T01:00:53.224Z,1003.33
2018-03-04T01:01:53.242Z,1003.34
2018-03-04T01:02:53.220Z,1003.36
2018-03-04T01:03:53.239Z,1003.37
2018-03-04T01:04:53.244Z,1003.37
2018-03-04T01:05:53.222Z,1003.37
2018-03-04T01:06:53.229Z,1003.37
2018-03-04T01:07:53.338Z,1003.38
2018-03-04T01:08:53.205Z,1003.43
2018-03-04T01:09:53.217Z,1003.45
2018-03-04T01:10:53.231Z,1003.39
2018-03-04T01:11:53.218Z,1003.41
2018-03-04T01:12:53.252Z,1003.42
2018-03-04T01:13:53.227Z,1003.48
2018-03-04T01:14:53.210Z,1003.47
2018-03-04T01:15:53.208Z,1003.45
2018-03-04T01:16:53.213Z,1003.43
2018-03-04T01:17:53.211Z,1003.45
2018-03-04T01:18:53.239Z,1003.44
2018-03-04T01:19:53.236Z,1003.41
2018-03-04T01:20:53.220Z,1003.4
2018-03-04T01:21:53.200Z,1003.44
2018-03-04T01:22:53.296Z,1003.41
2018-03-04T01:23:53.238Z,1003.41
2018-03-04T01:24:53.270Z,1003.42
2018-03-04T01:25:53.296Z,1003.42
2018-03-04T01:26:53.230Z,1003.44
2018-03-04T01:27:53.222Z,1003.45
2018-03-04T01:28:53.215Z,1003.42
2018-03-04T01:29:53.212Z,1003.43
2018-03-04T01:30:53.204Z,1003.38
2018-03-04T01:31:53.216Z,1003.35
2018-03-04T01:32:53.230Z,1003.3
2018-03-04T01:33:53.227Z,1003.29
2018-03-04T01:34:53.206Z,1003.27
2018-03-04T01:35:53.223Z,1003.3
2018-03-04T01:36:53.215Z,1003.37
2018-03-04T01:37:53.214Z,1003.4
2018-03-04T01:38:53.226Z,1003.4
2018-03-04T01:39:53.221Z,1003.37
2018-03-04T01:40:53.204Z,1003.35
2018-03-04T01:41:53.236Z,1003.36
2018-03-04T01:42:53.248Z,1003.38
2018-03-04T01:43:53.214Z,1003.4
2018-03-04T01:44:53.266Z,1003.39
2018-03-04T01:45:53.214Z,1003.39
2018-03-04T01:46:53.211Z,1003.4
2018-03-04T01:47:53.206Z,1003.39
2018-03-04T01:48:53.208Z,1003.46
2018-03-04T01:49:53.214Z,1003.48
2018-03-04T01:50:53.231Z,1003.45
2018-03-04T01:51:53.229Z,1003.39
2018-03-04T01:52:53.254Z,1003.38
2018-03-04T01:53:53.203Z,1003.37
2018-03-04T01:54:53.203Z,1003.39
2018-03-04T01:55:53.211Z,1003.45
2018-03-04T01:56:53.235Z,1003.47
2018-03-04T01:57:53.229Z,1003.48
2018-03-04T01:58:53.392Z,1003.52
2018-03-04T01:59:53.206Z,1003.49
2018-03-04T02:00:53.201Z,1003.49
2018-03-04T02:01:53.193Z,1003.56
2018-03-04T02:02:53.231Z,1003.54
2018-03-04T02:03:53.205Z,1003.53
2018-03-04T02:04:53.200Z,1003.54
2018-03-04T02:05:53.194Z,1003.54
2018-03-04T02:06:53.205Z,1003.58
2018-03-04T02:07:53.478Z,1003.62
2018-03-04T02:08:53.210Z,1003.63
2018-03-04T02:09:53.194Z,1003.71
2018-03-04T02:10:53.207Z,1003.72
2018-03-04T02:11:53.209Z,1003.73
2018-03-04T02:12:53.225Z,1003.75
2018-03-04T02:13:53.203Z,1003.77
2018-03-04T02:14:53.207Z,1003.76
2018-03-04T02:15:53.206Z,1003.69
2018-03-04T02:16:53.231Z,1003.67
2018-03-04T02:17:53.227Z,1003.61
2018-03-04T02:18:53.193Z,1003.63
2018-03-04T02:19:53.184Z,1003.61
2018-03-04T02:20:53.229Z,1003.66
2018-03-04T02:21:53.198Z,1003.6
2018-03-04T02:22:53.470Z,1003.57
2018-03-04T02:23:53.197Z,1003.57
2018-03-04T02:24:53.188Z,1003.61
2018-03-04T02:25:53.201Z,1003.63
2018-03-04T02:26:53.211Z,1003.67
2018-03-04T02:27:53.208Z,1003.65
2018-03-04T02:28:53.202Z,1003.66
2018-03-04T02:29:53.199Z,1003.66
2018-03-04T02:30:53.234Z,1003.66
2018-03-04T02:31:53.216Z,1003.68
2018-03-04T02:32:53.224Z,1003.67
2018-03-04T02:33:53.211Z,1003.57
2018-03-04T02:34:53.206Z,1003.57
2018-03-04T02:35:53.191Z,1003.53
2018-03-04T02:36:53.187Z,1003.53
2018-03-04T02:37:53.193Z,1003.5
2018-03-04T02:38:53.197Z,1003.46
2018-03-04T02:39:53.188Z,1003.44
2018-03-04T02:40:53.192Z,1003.42
2018-03-04T02:41:53.207Z,1003.42
2018-03-04T02:42:53.191Z,1003.45
2018-03-04T02:43:53.203Z,1003.39
2018-03-04T02:44:53.196Z,1003.41
2018-03-04T02:45:53.212Z,1003.33
2018-03-04T02:46:53.188Z,1003.39
2018-03-04T02:47:53.211Z,1003.37
2018-03-04T02:48:53.202Z,1003.38
2018-03-04T02:49:53.183Z,1003.33
2018-03-04T02:50:53.201Z,1003.28
2018-03-04T02:51:53.189Z,1003.26
2018-03-04T02:52:53.183Z,1003.23
2018-03-04T02:53:53.181Z,1003.25
2018-03-04T02:54:53.186Z,1003.2
2018-03-04T02:55:53.211Z,1003.14
2018-03-04T02:56:53.195Z,1003.18
2018-03-04T02:57:53.193Z,1003.17
2018-03-04T02:58:53.196Z,1003.15
2018-03-04T02:59:53.211Z,1003.11
2018-03-04T03:00:53.242Z,1003.06
2018-03-04T03:01:53.210Z,1002.98
2018-03-04T03:02:53.198Z,1002.99
2018-03-04T03:03:53.185Z,1002.97
2018-03-04T03:04:53.169Z,1002.97
2018-03-04T03:05:53.187Z,1002.93
2018-03-04T03:06:53.219Z,1002.92
2018-03-04T03:07:53.446Z,1002.91
2018-03-04T03:08:53.178Z,1002.91
2018-03-04T03:09:53.179Z,1002.9
2018-03-04T03:10:53.188Z,1002.93
2018-03-04T03:11:53.184Z,1002.94
2018-03-04T03:12:53.207Z,1002.9
2018-03-04T03:13:53.182Z,1002.99
2018-03-04T03:14:53.176Z,1002.99
2018-03-04T03:15:53.449Z,1003.06
2018-03-04T03:16:53.176Z,1003.09
2018-03-04T03:17:53.191Z,1003.06
2018-03-04T03:18:53.184Z,1003.07
2018-03-04T03:19:53.176Z,1003.06
2018-03-04T03:20:53.216Z,1003.14
2018-03-04T03:21:53.188Z,1003.14
2018-03-04T03:22:53.184Z,1003.19
2018-03-04T03:23:53.198Z,1003.25
2018-03-04T03:24:53.167Z,1003.19
2018-03-04T03:25:53.255Z,1003.19
2018-03-04T03:26:53.312Z,1003.21
2018-03-04T03:27:53.168Z,1003.24
2018-03-04T03:28:53.162Z,1003.3
2018-03-04T03:29:53.164Z,1003.29
2018-03-04T03:30:53.301Z,1003.27
2018-03-04T03:31:53.179Z,1003.3
2018-03-04T03:32:53.184Z,1003.31
2018-03-04T03:33:53.155Z,1003.27
2018-03-04T03:34:55.001Z,1003.27
2018-03-04T03:35:53.174Z,1003.23
2018-03-04T03:36:53.186Z,1003.23
2018-03-04T03:37:53.169Z,1003.16
2018-03-04T03:38:53.164Z,1003.1
2018-03-04T03:39:53.163Z,1003.12
2018-03-04T03:40:53.169Z,1003.11
2018-03-04T03:41:53.438Z,1003.05
2018-03-04T03:42:53.172Z,1003.04
2018-03-04T03:43:53.169Z,1003
2018-03-04T03:44:53.182Z,1003.04
2018-03-04T03:45:53.164Z,1003.01
2018-03-04T03:46:53.333Z,1003.01
2018-03-04T03:47:53.148Z,1002.98
2018-03-04T03:48:53.160Z,1002.98
2018-03-04T03:49:53.166Z,1002.95
2018-03-04T03:50:53.172Z,1002.95
2018-03-04T03:51:53.182Z,1002.94
2018-03-04T03:52:53.172Z,1002.93
2018-03-04T03:53:53.165Z,1002.91
2018-03-04T03:54:53.144Z,1002.9
2018-03-04T03:55:53.166Z,1002.85
2018-03-04T03:56:53.192Z,1002.86
2018-03-04T03:57:53.169Z,1002.86
2018-03-04T03:58:53.162Z,1002.9
2018-03-04T03:59:53.167Z,1002.89
2018-03-04T04:00:53.163Z,1002.89
2018-03-04T04:01:53.224Z,1002.86
2018-03-04T04:02:53.181Z,1002.85
2018-03-04T04:03:53.175Z,1002.77
2018-03-04T04:04:53.182Z,1002.79
2018-03-04T04:05:53.172Z,1002.75
2018-03-04T04:06:53.152Z,1002.75
2018-03-04T04:07:53.185Z,1002.75
2018-03-04T04:08:53.161Z,1002.77
2018-03-04T04:09:53.161Z,1002.79
2018-03-04T04:10:53.195Z,1002.75
2018-03-04T04:11:53.142Z,1002.75
2018-03-04T04:12:59.224Z,1002.76
2018-03-04T04:13:53.158Z,1002.72
2018-03-04T04:14:53.155Z,1002.73
2018-03-04T04:15:53.170Z,1002.74
2018-03-04T04:16:53.167Z,1002.74
2018-03-04T04:17:53.166Z,1002.75
2018-03-04T04:18:53.177Z,1002.74
2018-03-04T04:19:53.158Z,1002.72
2018-03-04T04:20:53.174Z,1002.73
2018-03-04T04:21:53.169Z,1002.74
2018-03-04T04:22:53.152Z,1002.8
2018-03-04T04:23:53.154Z,1002.82
2018-03-04T04:24:53.142Z,1002.83
2018-03-04T04:25:53.189Z,1002.88
2018-03-04T04:26:53.167Z,1002.91
2018-03-04T04:27:53.148Z,1002.88
2018-03-04T04:28:53.155Z,1002.9
2018-03-04T04:29:53.163Z,1002.83
2018-03-04T04:30:53.161Z,1002.83
2018-03-04T04:31:53.146Z,1002.84
2018-03-04T04:32:53.164Z,1002.81
2018-03-04T04:33:53.146Z,1002.79
2018-03-04T04:34:53.157Z,1002.83
2018-03-04T04:35:53.168Z,1002.81
2018-03-04T04:36:53.152Z,1002.86
2018-03-04T04:37:53.147Z,1002.85
2018-03-04T04:38:53.165Z,1002.85
2018-03-04T04:39:53.146Z,1002.84
2018-03-04T04:40:53.146Z,1002.81
2018-03-04T04:41:53.150Z,1002.74
2018-03-04T04:42:53.158Z,1002.7
2018-03-04T04:43:53.160Z,1002.63
2018-03-04T04:44:53.142Z,1002.64
2018-03-04T04:45:53.138Z,1002.63
2018-03-04T04:46:53.152Z,1002.62
2018-03-04T04:47:53.127Z,1002.59
2018-03-04T04:48:53.151Z,1002.68
2018-03-04T04:49:53.141Z,1002.68
2018-03-04T04:50:53.147Z,1002.68
2018-03-04T04:51:53.127Z,1002.69
2018-03-04T04:52:53.202Z,1002.69
2018-03-04T04:53:53.266Z,1002.67
2018-03-04T04:54:53.138Z,1002.66
2018-03-04T04:55:53.143Z,1002.69
2018-03-04T04:56:53.150Z,1002.72
2018-03-04T04:57:53.139Z,1002.67
2018-03-04T04:58:53.164Z,1002.68
2018-03-04T04:59:53.132Z,1002.69
2018-03-04T05:00:53.144Z,1002.66
2018-03-04T05:01:53.148Z,1002.7
2018-03-04T05:02:53.168Z,1002.65
2018-03-04T05:03:53.159Z,1002.66
2018-03-04T05:04:53.144Z,1002.61
2018-03-04T05:05:53.181Z,1002.62
2018-03-04T05:06:53.133Z,1002.62
2018-03-04T05:07:53.123Z,1002.57
2018-03-04T05:08:53.124Z,1002.59
2018-03-04T05:09:53.142Z,1002.55
2018-03-04T05:10:53.141Z,1002.53
2018-03-04T05:11:53.133Z,1002.47
2018-03-04T05:12:53.165Z,1002.54
2018-03-04T05:13:53.127Z,1002.57
2018-03-04T05:14:53.127Z,1002.56
2018-03-04T05:15:53.132Z,1002.61
2018-03-04T05:16:53.131Z,1002.58
2018-03-04T05:17:53.164Z,1002.59
2018-03-04T05:18:53.138Z,1002.58
2018-03-04T05:19:53.141Z,1002.57
2018-03-04T05:20:53.167Z,1002.58
2018-03-04T05:21:53.133Z,1002.59
2018-03-04T05:22:53.139Z,1002.57
2018-03-04T05:23:53.127Z,1002.53
2018-03-04T05:24:53.125Z,1002.51
2018-03-04T05:25:53.161Z,1002.5
2018-03-04T05:26:53.234Z,1002.49
2018-03-04T05:27:53.217Z,1002.51
2018-03-04T05:28:53.129Z,1002.54
2018-03-04T05:29:53.132Z,1002.53
2018-03-04T05:30:53.448Z,1002.57
2018-03-04T05:31:53.146Z,1002.58
2018-03-04T05:32:53.134Z,1002.55
2018-03-04T05:33:53.117Z,1002.59
2018-03-04T05:34:53.129Z,1002.57
2018-03-04T05:35:53.151Z,1002.62
2018-03-04T05:36:53.126Z,1002.63
2018-03-04T05:37:53.129Z,1002.62
2018-03-04T05:38:53.116Z,1002.64
2018-03-04T05:39:53.107Z,1002.64
2018-03-04T05:40:53.122Z,1002.62
2018-03-04T05:41:53.164Z,1002.58
2018-03-04T05:42:53.139Z,1002.63
2018-03-04T05:43:53.119Z,1002.66
2018-03-04T05:44:53.132Z,1002.59
2018-03-04T05:45:53.135Z,1002.62
2018-03-04T05:46:53.150Z,1002.66
2018-03-04T05:47:53.125Z,1002.66
2018-03-04T05:48:53.119Z,1002.7
2018-03-04T05:49:53.119Z,1002.62
2018-03-04T05:50:53.120Z,1002.63
2018-03-04T05:51:53.154Z,1002.62
2018-03-04T05:52:53.121Z,1002.62
2018-03-04T05:53:53.125Z,1002.66
2018-03-04T05:54:53.122Z,1002.65
2018-03-04T05:55:53.112Z,1002.6
2018-03-04T05:56:53.388Z,1002.64
2018-03-04T05:57:53.123Z,1002.61
2018-03-04T05:58:53.121Z,1002.63
2018-03-04T05:59:53.116Z,1002.58
2018-03-04T06:00:53.116Z,1002.65
2018-03-04T06:01:53.137Z,1002.62
2018-03-04T06:02:53.142Z,1002.63
2018-03-04T06:03:53.135Z,1002.65
2018-03-04T06:04:53.119Z,1002.64
2018-03-04T06:05:53.108Z,1002.61
2018-03-04T06:06:53.143Z,1002.62
2018-03-04T06:07:53.136Z,1002.63
2018-03-04T06:08:53.157Z,1002.57
2018-03-04T06:09:53.107Z,1002.52
2018-03-04T06:10:53.143Z,1002.49
2018-03-04T06:11:53.131Z,1002.43
2018-03-04T06:12:53.112Z,1002.42
2018-03-04T06:13:53.119Z,1002.36
2018-03-04T06:14:53.103Z,1002.35
2018-03-04T06:15:53.110Z,1002.3
2018-03-04T06:16:53.379Z,1002.31
2018-03-04T06:17:53.122Z,1002.27
2018-03-04T06:18:53.100Z,1002.19
2018-03-04T06:19:53.119Z,1002.2
2018-03-04T06:20:53.119Z,1002.15
2018-03-04T06:21:53.122Z,1002.15
2018-03-04T06:22:53.108Z,1002.12
2018-03-04T06:23:53.115Z,1002.11
2018-03-04T06:24:53.105Z,1002.09
2018-03-04T06:25:53.133Z,1002.08
2018-03-04T06:26:53.116Z,1002.1
2018-03-04T06:27:53.099Z,1002.13
2018-03-04T06:28:53.102Z,1002.1
2018-03-04T06:29:53.099Z,1002.06
2018-03-04T06:30:53.384Z,1002.06
2018-03-04T06:31:53.107Z,1002.06
2018-03-04T06:32:53.105Z,1002.01
2018-03-04T06:33:53.106Z,1002.05
2018-03-04T06:34:53.113Z,1002.03
2018-03-04T06:35:53.129Z,1002.02
2018-03-04T06:36:53.109Z,1002
2018-03-04T06:37:53.103Z,1001.98
2018-03-04T06:38:53.089Z,1001.98
2018-03-04T06:39:53.105Z,1002
2018-03-04T06:40:53.104Z,1001.98
2018-03-04T06:41:53.110Z,1001.99
2018-03-04T06:42:53.114Z,1002.01
2018-03-04T06:43:53.095Z,1001.97
2018-03-04T06:44:53.150Z,1002.02
2018-03-04T06:45:53.161Z,1002.03
2018-03-04T06:46:53.109Z,1002.07
2018-03-04T06:47:53.119Z,1002.07
2018-03-04T06:48:53.111Z,1002.16
2018-03-04T06:49:53.128Z,1002.24
2018-03-04T06:50:53.104Z,1002.29
2018-03-04T06:51:53.098Z,1002.35
2018-03-04T06:52:53.108Z,1002.38
2018-03-04T06:53:53.100Z,1002.43
2018-03-04T06:54:53.099Z,1002.48
2018-03-04T06:55:53.109Z,1002.49
2018-03-04T06:56:53.126Z,1002.51
2018-03-04T06:57:53.201Z,1002.48
2018-03-04T06:58:53.110Z,1002.55
2018-03-04T06:59:53.116Z,1002.62
2018-03-04T07:00:53.107Z,1002.62
2018-03-04T07:01:53.086Z,1002.68
2018-03-04T07:02:53.111Z,1002.67
2018-03-04T07:03:53.094Z,1002.64
2018-03-04T07:04:53.132Z,1002.62
2018-03-04T07:05:53.099Z,1002.62
2018-03-04T07:06:53.087Z,1002.59
2018-03-04T07:07:53.110Z,1002.56
2018-03-04T07:08:53.134Z,1002.59
2018-03-04T07:09:53.117Z,1002.6
2018-03-04T07:10:53.089Z,1002.62
2018-03-04T07:11:53.095Z,1002.67
2018-03-04T07:12:53.094Z,1002.67
2018-03-04T07:13:53.112Z,1002.65
2018-03-04T07:14:53.101Z,1002.72
2018-03-04T07:15:53.111Z,1002.69
2018-03-04T07:16:53.161Z,1002.61
2018-03-04T07:17:53.100Z,1002.61
2018-03-04T07:18:53.103Z,1002.54
2018-03-04T07:19:53.117Z,1002.55
2018-03-04T07:20:53.076Z,1002.62
2018-03-04T07:21:53.084Z,1002.63
2018-03-04T07:22:53.088Z,1002.56
2018-03-04T07:23:53.088Z,1002.58
2018-03-04T07:24:53.129Z,1002.6
2018-03-04T07:25:53.096Z,1002.6
2018-03-04T07:26:53.140Z,1002.56
2018-03-04T07:27:53.235Z,1002.58
2018-03-04T07:28:53.192Z,1002.57
2018-03-04T07:29:53.366Z,1002.54
2018-03-04T07:30:53.089Z,1002.53
2018-03-04T07:31:53.085Z,1002.54
2018-03-04T07:32:53.100Z,1002.52
2018-03-04T07:33:53.095Z,1002.46
2018-03-04T07:34:53.127Z,1002.47
2018-03-04T07:35:53.095Z,1002.47
2018-03-04T07:36:53.088Z,1002.41
2018-03-04T07:37:53.081Z,1002.39
2018-03-04T07:38:53.111Z,1002.37
2018-03-04T07:39:53.357Z,1002.39
2018-03-04T07:40:53.096Z,1002.35
2018-03-04T07:41:53.077Z,1002.31
2018-03-04T07:42:53.083Z,1002.26
2018-03-04T07:43:53.084Z,1002.28
2018-03-04T07:44:53.122Z,1002.28
2018-03-04T07:45:53.086Z,1002.27
2018-03-04T07:46:53.087Z,1002.26
2018-03-04T07:47:53.084Z,1002.23
2018-03-04T07:48:53.095Z,1002.23
2018-03-04T07:49:53.111Z,1002.27
2018-03-04T07:50:53.088Z,1002.27
2018-03-04T07:51:53.128Z,1002.25
2018-03-04T07:52:53.090Z,1002.27
2018-03-04T07:53:53.078Z,1002.24
2018-03-04T07:54:53.098Z,1002.25
2018-03-04T07:55:53.066Z,1002.19
2018-03-04T07:56:53.092Z,1002.2
2018-03-04T07:57:53.094Z,1002.16
2018-03-04T07:58:53.064Z,1002.09
2018-03-04T07:59:53.095Z,1002.06
2018-03-04T08:00:53.084Z,1002
2018-03-04T08:01:53.091Z,1002
2018-03-04T08:02:53.092Z,1002.01
2018-03-04T08:03:53.085Z,1001.97
2018-03-04T08:04:53.094Z,1001.98
2018-03-04T08:05:53.083Z,1001.92
2018-03-04T08:06:53.078Z,1001.9
2018-03-04T08:07:53.080Z,1001.92
2018-03-04T08:08:53.078Z,1001.89
2018-03-04T08:09:53.106Z,1001.83
2018-03-04T08:10:53.083Z,1001.83
2018-03-04T08:11:53.090Z,1001.77
2018-03-04T08:12:53.086Z,1001.73
2018-03-04T08:13:53.075Z,1001.71
2018-03-04T08:14:53.067Z,1001.67
2018-03-04T08:15:53.069Z,1001.69
2018-03-04T08:16:53.127Z,1001.65
2018-03-04T08:17:53.076Z,1001.66
2018-03-04T08:18:53.083Z,1001.68
2018-03-04T08:19:53.076Z,1001.72
2018-03-04T08:20:53.062Z,1001.72
2018-03-04T08:21:53.090Z,1001.71
2018-03-04T08:22:53.081Z,1001.67
2018-03-04T08:23:53.099Z,1001.72
2018-03-04T08:24:53.065Z,1001.68
2018-03-04T08:25:53.065Z,1001.71
2018-03-04T08:26:53.059Z,1001.71
2018-03-04T08:27:53.071Z,1001.76
2018-03-04T08:28:53.095Z,1001.84
2018-03-04T08:29:53.060Z,1001.84
2018-03-04T08:30:53.068Z,1001.87
2018-03-04T08:31:53.091Z,1001.91
2018-03-04T08:32:53.069Z,1001.95
2018-03-04T08:33:53.340Z,1001.97
2018-03-04T08:34:53.063Z,1002
2018-03-04T08:35:53.082Z,1002.01
2018-03-04T08:36:53.070Z,1002.09
2018-03-04T08:37:53.061Z,1002.07
2018-03-04T08:38:53.081Z,1002.05
2018-03-04T08:39:53.058Z,1002.02
2018-03-04T08:40:53.062Z,1001.96
2018-03-04T08:41:53.061Z,1001.97
2018-03-04T08:42:53.061Z,1001.97
2018-03-04T08:43:53.088Z,1001.96
2018-03-04T08:44:53.065Z,1001.94
2018-03-04T08:45:53.068Z,1001.92
2018-03-04T08:46:53.065Z,1001.9
2018-03-04T08:47:53.136Z,1001.87
2018-03-04T08:48:53.049Z,1001.88
2018-03-04T08:49:53.080Z,1001.84
2018-03-04T08:50:53.087Z,1001.87
2018-03-04T08:51:53.067Z,1001.91
2018-03-04T08:52:53.060Z,1001.84
2018-03-04T08:53:53.076Z,1001.89
2018-03-04T08:54:53.058Z,1001.9
2018-03-04T08:55:53.059Z,1001.9
2018-03-04T08:56:53.066Z,1001.92
2018-03-04T08:57:53.097Z,1001.92
2018-03-04T08:58:53.049Z,1001.94
2018-03-04T08:59:53.067Z,1001.95
2018-03-04T09:00:53.058Z,1001.95
2018-03-04T09:01:53.066Z,1001.93
2018-03-04T09:02:53.081Z,1001.92
2018-03-04T09:03:53.084Z,1001.88
2018-03-04T09:04:53.064Z,1001.86
2018-03-04T09:05:53.058Z,1001.89
2018-03-04T09:06:53.049Z,1001.86
2018-03-04T09:07:53.043Z,1001.86
2018-03-04T09:08:53.060Z,1001.9
2018-03-04T09:09:53.056Z,1001.86
2018-03-04T09:10:53.070Z,1001.85
2018-03-04T09:11:53.057Z,1001.79
2018-03-04T09:12:53.046Z,1001.79
2018-03-04T09:13:53.048Z,1001.79
2018-03-04T09:14:53.329Z,1001.81
2018-03-04T09:15:53.056Z,1001.81
2018-03-04T09:16:53.063Z,1001.86
2018-03-04T09:17:53.041Z,1001.81
2018-03-04T09:18:53.038Z,1001.81
2018-03-04T09:19:53.242Z,1001.8
2018-03-04T09:20:53.311Z,1001.78
2018-03-04T09:21:53.053Z,1001.81
2018-03-04T09:22:53.034Z,1001.83
2018-03-04T09:23:53.044Z,1001.82
2018-03-04T09:24:53.065Z,1001.87
2018-03-04T09:25:53.327Z,1001.83
2018-03-04T09:26:53.044Z,1001.82
2018-03-04T09:27:53.042Z,1001.83
2018-03-04T09:28:53.148Z,1001.82
2018-03-04T09:29:53.142Z,1001.72
2018-03-04T09:30:53.071Z,1001.72
2018-03-04T09:31:53.049Z,1001.73
2018-03-04T09:32:53.033Z,1001.72
2018-03-04T09:33:53.039Z,1001.71
2018-03-04T09:34:53.041Z,1001.72
2018-03-04T09:35:53.065Z,1001.69
2018-03-04T09:36:53.044Z,1001.68
2018-03-04T09:37:53.020Z,1001.66
2018-03-04T09:38:53.032Z,1001.63
2018-03-04T09:39:53.060Z,1001.63
2018-03-04T09:40:53.047Z,1001.59
2018-03-04T09:41:53.061Z,1001.55
2018-03-04T09:42:53.048Z,1001.54
2018-03-04T09:43:53.036Z,1001.56
2018-03-04T09:44:53.032Z,1001.49
2018-03-04T09:45:53.071Z,1001.46
2018-03-04T09:46:53.061Z,1001.43
2018-03-04T09:47:53.071Z,1001.37
2018-03-04T09:48:53.050Z,1001.36
2018-03-04T09:49:53.047Z,1001.28
2018-03-04T09:50:53.046Z,1001.3
2018-03-04T09:51:53.056Z,1001.21
2018-03-04T09:52:53.081Z,1001.2
2018-03-04T09:53:53.053Z,1001.15
2018-03-04T09:54:53.028Z,1001.08
2018-03-04T09:55:53.036Z,1001.08
2018-03-04T09:56:53.039Z,1001.01
2018-03-04T09:57:53.090Z,1001.01
2018-03-04T09:58:53.055Z,1001
2018-03-04T09:59:53.029Z,1000.99
2018-03-04T10:00:53.068Z,1000.99
2018-03-04T10:01:53.040Z,1000.93
2018-03-04T10:02:53.077Z,1000.89
2018-03-04T10:03:53.061Z,1000.85
2018-03-04T10:04:53.056Z,1000.82
2018-03-04T10:05:53.044Z,1000.8
2018-03-04T10:06:53.054Z,1000.82
2018-03-04T10:07:53.081Z,1000.83
2018-03-04T10:08:53.074Z,1000.79
2018-03-04T10:09:53.060Z,1000.77
2018-03-04T10:10:53.034Z,1000.79
2018-03-04T10:11:53.037Z,1000.79
2018-03-04T10:12:53.088Z,1000.86
2018-03-04T10:13:53.058Z,1000.9
2018-03-04T10:14:53.076Z,1000.89
2018-03-04T10:15:53.044Z,1000.95
2018-03-04T10:16:53.031Z,1000.97
2018-03-04T10:17:53.035Z,1001.01
2018-03-04T10:18:53.083Z,1001
2018-03-04T10:19:53.060Z,1000.99
2018-03-04T10:20:53.036Z,1000.98
2018-03-04T10:21:53.065Z,1000.92
2018-03-04T10:22:53.041Z,1000.85
2018-03-04T10:23:53.021Z,1000.85
2018-03-04T10:24:53.048Z,1000.87
2018-03-04T10:25:53.043Z,1000.94
2018-03-04T10:26:53.017Z,1000.95
2018-03-04T10:27:53.036Z,1000.97
2018-03-04T10:28:53.038Z,1000.94
2018-03-04T10:29:53.074Z,1000.88
2018-03-04T10:30:53.016Z,1000.88
2018-03-04T10:31:53.024Z,1000.9
2018-03-04T10:32:53.077Z,1000.9
2018-03-04T10:33:53.037Z,1000.95
2018-03-04T10:34:53.047Z,1000.99
2018-03-04T10:35:53.046Z,1000.93
2018-03-04T10:36:53.095Z,1000.96
2018-03-04T10:37:53.146Z,1000.88
2018-03-04T10:38:53.050Z,1000.89
2018-03-04T10:39:53.028Z,1000.92
2018-03-04T10:40:53.027Z,1000.91
2018-03-04T10:41:53.035Z,1000.92
2018-03-04T10:42:53.010Z,1000.95
2018-03-04T10:43:53.017Z,1000.94
2018-03-04T10:44:53.130Z,1000.93
2018-03-04T10:45:53.041Z,1000.9
2018-03-04T10:46:53.026Z,1000.96
2018-03-04T10:47:30.472Z,1000.96
2018-03-04T10:47:42.275Z,1000.97
2018-03-04T10:48:42.231Z,1000.97
2018-03-04T10:49:42.271Z,1000.95
2018-03-04T10:50:42.241Z,1000.94
2018-03-04T10:51:42.221Z,1000.92
2018-03-04T10:52:42.213Z,1000.94
2018-03-04T10:53:42.226Z,1000.97
2018-03-04T10:54:42.228Z,1000.95
2018-03-04T10:55:42.287Z,1000.95
2018-03-04T10:56:42.218Z,1000.94
2018-03-04T10:57:42.223Z,1000.95
2018-03-04T10:58:42.331Z,1000.88
2018-03-04T10:59:42.225Z,1000.9
2018-03-04T11:00:42.236Z,1000.93
2018-03-04T11:01:42.234Z,1000.93
2018-03-04T11:02:42.246Z,1000.91
2018-03-04T11:03:42.231Z,1000.9
2018-03-04T11:04:42.215Z,1000.92
2018-03-04T11:05:42.228Z,1000.88
2018-03-04T11:06:42.222Z,1000.89
2018-03-04T11:07:42.232Z,1000.9
2018-03-04T11:08:42.220Z,1000.92
2018-03-04T11:09:42.395Z,1000.91
2018-03-04T11:10:42.224Z,1000.94
2018-03-04T11:11:42.245Z,1000.93
2018-03-04T11:12:42.218Z,1000.87
2018-03-04T11:13:42.219Z,1000.9
2018-03-04T11:14:42.240Z,1000.91
2018-03-04T11:15:42.221Z,1000.83
2018-03-04T11:16:42.220Z,1000.84
2018-03-04T11:17:48.226Z,1000.86
2018-03-04T11:18:48.187Z,1000.84
2018-03-04T11:19:48.210Z,1000.8
2018-03-04T11:20:48.223Z,1000.81
2018-03-04T11:21:48.262Z,1000.79
2018-03-04T11:22:48.190Z,1000.78
2018-03-04T11:23:48.201Z,1000.79
2018-03-04T11:24:44.436Z,1000.83
2018-03-04T11:25:44.420Z,1000.84
2018-03-04T11:26:44.450Z,1000.83
2018-03-04T11:27:44.429Z,1000.83
2018-03-04T11:28:44.718Z,1000.8
2018-03-04T11:31:17.326Z,1000.78
2018-03-04T11:32:17.270Z,1000.75
2018-03-04T11:33:17.306Z,1000.71
2018-03-04T11:34:17.688Z,1000.72
2018-03-04T11:35:17.323Z,1000.75
2018-03-04T11:36:17.274Z,1000.71
2018-03-04T11:37:17.697Z,1000.69
2018-03-04T11:38:17.690Z,1000.67
2018-03-04T11:39:17.331Z,1000.62
2018-03-04T11:40:17.321Z,1000.61
2018-03-04T11:41:17.715Z,1000.57
2018-03-04T11:42:17.288Z,1000.57
2018-03-04T11:43:17.718Z,1000.57
2018-03-04T11:44:17.328Z,1000.56
2018-03-04T11:45:17.269Z,1000.5
2018-03-04T11:46:17.321Z,1000.49
2018-03-04T11:47:17.390Z,1000.48
2018-03-04T11:48:17.371Z,1000.44
2018-03-04T11:49:17.507Z,1000.43
2018-03-04T11:50:17.301Z,1000.46
2018-03-04T11:51:17.384Z,1000.42
2018-03-04T11:52:17.469Z,1000.39
2018-03-04T11:53:17.115Z,1000.42
2018-03-04T11:54:17.073Z,1000.37
2018-03-04T11:55:17.113Z,1000.35
2018-03-04T11:56:17.135Z,1000.31
2018-03-04T11:57:17.152Z,1000.36
2018-03-04T11:58:17.196Z,1000.4
2018-03-04T11:59:17.066Z,1000.38
2018-03-04T12:00:17.099Z,1000.38
2018-03-04T12:01:17.122Z,1000.34
2018-03-04T12:02:17.074Z,1000.3
2018-03-04T12:03:17.052Z,1000.35
2018-03-04T12:04:17.089Z,1000.29
2018-03-04T12:05:17.048Z,1000.3
2018-03-04T12:06:17.031Z,1000.23
2018-03-04T12:07:17.026Z,1000.21
2018-03-04T12:08:17.054Z,1000.18
2018-03-04T12:09:17.670Z,1000.12